Time;durP1;ratioP1;P1;durP2;ratioP2;P2;SDS_P1;SDS_P2;PMS_P1;PMS_P2;Temp;Humidity;BMP_temperature;BMP_pressure;BME280_temperature;BME280_humidity;BME280_pressure;Samples;Min_cycle;Max_cycle;Signal;HPM_P1;HPM_P2
2022/05/08 00:02:07;;;;;;;10.15;5.90;;;12.90;72.70;;;;;;5047929;28;20017;-70
2022/05/08 00:04:33;;;;;;;9.93;6.63;;;12.90;72.90;;;;;;5058127;28;20021;-69
2022/05/08 00:06:58;;;;;;;8.77;6.30;;;12.90;72.90;;;;;;5049482;28;20449;-70
2022/05/08 00:09:24;;;;;;;7.85;5.85;;;12.90;73.00;;;;;;5056215;28;20029;-70
2022/05/08 00:11:49;;;;;;;8.52;6.05;;;12.80;73.10;;;;;;5050422;28;20029;-70
2022/05/08 00:14:15;;;;;;;8.13;6.03;;;12.80;73.30;;;;;;5049347;28;20078;-69
2022/05/08 00:16:40;;;;;;;11.50;6.90;;;12.80;73.10;;;;;;5050552;28;20155;-69
2022/05/08 00:19:06;;;;;;;9.90;6.45;;;12.80;73.10;;;;;;5059744;28;20044;-69
2022/05/08 00:21:31;;;;;;;10.73;6.10;;;12.80;73.40;;;;;;5044646;28;20029;-70
2022/05/08 00:23:57;;;;;;;11.43;6.82;;;12.70;73.50;;;;;;5064095;28;20138;-69
2022/05/08 00:26:22;;;;;;;10.93;6.40;;;12.70;73.40;;;;;;5047395;28;20040;-69
2022/05/08 00:28:50;;;;;;;11.65;6.70;;;12.70;73.60;;;;;;5058066;28;20032;-69
2022/05/08 00:31:16;;;;;;;9.18;5.68;;;12.70;73.60;;;;;;5059043;28;20546;-69
2022/05/08 00:33:41;;;;;;;8.48;5.45;;;12.60;73.60;;;;;;5057249;28;20043;-69
2022/05/08 00:36:07;;;;;;;9.55;5.93;;;12.60;73.50;;;;;;5060163;28;20017;-70
2022/05/08 00:38:33;;;;;;;8.68;5.47;;;12.60;73.40;;;;;;5047365;28;20101;-70
2022/05/08 00:40:58;;;;;;;8.27;5.80;;;12.60;73.30;;;;;;5063078;28;20096;-70
2022/05/08 00:43:42;;;;;;;10.32;5.00;;;12.60;73.40;;;;;;5055089;28;20155;-70
2022/05/08 00:46:12;;;;;;;12.85;6.60;;;12.60;73.20;;;;;;5029924;28;20025;-70
2022/05/08 00:48:39;;;;;;;10.82;5.90;;;12.60;73.10;;;;;;5050560;28;20025;-70
2022/05/08 00:51:06;;;;;;;11.93;6.25;;;12.50;73.00;;;;;;5055717;28;20029;-71
2022/05/08 00:53:37;;;;;;;7.90;4.38;;;12.50;73.00;;;;;;5041937;28;20116;-70
2022/05/08 00:56:06;;;;;;;10.02;4.93;;;12.60;72.90;;;;;;5052313;28;20029;-70
2022/05/08 00:58:33;;;;;;;8.27;4.53;;;12.50;72.60;;;;;;5047896;28;20033;-69
2022/05/08 01:00:58;;;;;;;13.13;5.60;;;12.50;72.30;;;;;;5052742;28;20017;-70
2022/05/08 01:03:24;;;;;;;10.35;5.45;;;12.40;72.30;;;;;;5040756;28;20039;-69
2022/05/08 01:05:53;;;;;;;10.93;5.43;;;12.30;72.40;;;;;;5052905;28;20530;-69
2022/05/08 01:08:20;;;;;;;11.68;4.95;;;12.30;72.50;;;;;;5049204;28;20041;-70
2022/05/08 01:10:46;;;;;;;12.30;5.55;;;12.20;72.50;;;;;;5049055;28;20078;-69
2022/05/08 01:13:12;;;;;;;11.10;4.68;;;12.20;72.50;;;;;;5045393;28;20495;-70
2022/05/08 01:15:45;;;;;;;10.98;5.25;;;12.20;73.10;;;;;;5058817;28;20033;-70
2022/05/08 01:18:12;;;;;;;11.48;4.50;;;12.20;72.40;;;;;;5041015;28;20017;-69
2022/05/08 01:20:42;;;;;;;9.30;4.30;;;12.20;72.30;;;;;;5052455;28;20029;-69
2022/05/08 01:23:08;;;;;;;10.27;4.72;;;12.20;72.10;;;;;;5059028;28;20022;-69
2022/05/08 01:25:35;;;;;;;14.07;4.93;;;12.20;72.00;;;;;;5052566;28;20084;-69
2022/05/08 01:28:04;;;;;;;12.73;5.40;;;12.20;71.90;;;;;;5060958;28;20078;-70
2022/05/08 01:30:31;;;;;;;11.70;5.18;;;12.20;71.70;;;;;;5054083;28;20499;-70
2022/05/08 01:32:58;;;;;;;14.20;5.30;;;12.10;71.70;;;;;;5048872;28;20510;-70
2022/05/08 01:35:24;;;;;;;12.23;4.80;;;12.10;71.60;;;;;;5064097;28;20029;-70
2022/05/08 01:37:50;;;;;;;9.95;4.20;;;12.10;71.50;;;;;;5062734;28;20026;-69
2022/05/08 01:40:17;;;;;;;11.32;4.28;;;12.10;71.40;;;;;;5061778;28;20027;-70
2022/05/08 01:42:44;;;;;;;12.02;4.43;;;12.10;71.10;;;;;;5054580;28;20028;-69
2022/05/08 01:45:13;;;;;;;13.95;4.43;;;12.10;71.00;;;;;;5057819;28;20047;-69
2022/05/08 01:50:23;;;;;;;10.63;4.65;;;12.00;70.80;;;;;;5056138;28;20266;-69
2022/05/08 01:52:49;;;;;;;8.70;3.38;;;12.00;70.60;;;;;;5050567;28;20112;-70
2022/05/08 01:55:15;;;;;;;11.15;3.88;;;12.00;70.60;;;;;;5047077;28;20025;-70
2022/05/08 01:57:40;;;;;;;13.05;4.18;;;12.00;70.50;;;;;;5052446;28;20027;-69
2022/05/08 02:00:06;;;;;;;10.98;3.50;;;11.90;70.50;;;;;;5052103;28;20399;-68
2022/05/08 02:02:32;;;;;;;14.50;4.28;;;11.90;70.40;;;;;;5062748;28;20016;-69
2022/05/08 02:04:59;;;;;;;12.90;3.70;;;11.70;70.60;;;;;;5055838;28;20029;-68
2022/05/08 02:07:25;;;;;;;10.23;3.55;;;11.70;70.80;;;;;;5064373;28;20070;-69
2022/05/08 02:09:51;;;;;;;11.32;3.38;;;11.60;70.70;;;;;;5056033;28;20060;-68
2022/05/08 02:12:16;;;;;;;12.73;3.60;;;11.70;70.70;;;;;;5065864;28;20025;-68
2022/05/08 02:14:43;;;;;;;11.88;3.60;;;11.60;70.70;;;;;;5055625;28;20047;-69
2022/05/08 02:17:09;;;;;;;9.40;3.22;;;11.60;70.80;;;;;;5065376;28;20166;-69
2022/05/08 02:19:35;;;;;;;9.18;2.85;;;11.60;71.30;;;;;;5045544;28;20101;-68
2022/05/08 02:22:00;;;;;;;11.55;3.35;;;11.70;70.60;;;;;;5055904;28;21057;-70
2022/05/08 02:24:26;;;;;;;7.38;3.00;;;11.60;70.50;;;;;;5060204;28;20052;-69
2022/05/08 02:26:51;;;;;;;11.90;3.20;;;11.70;70.40;;;;;;5050409;28;20107;-69
2022/05/08 02:29:17;;;;;;;8.73;2.42;;;11.70;70.30;;;;;;5058190;28;20107;-69
2022/05/08 02:31:42;;;;;;;13.93;4.00;;;11.70;70.10;;;;;;5052191;28;20032;-69
2022/05/08 02:34:08;;;;;;;13.27;3.05;;;11.70;70.10;;;;;;5048942;28;20025;-69
2022/05/08 02:36:33;;;;;;;15.13;4.10;;;11.70;70.10;;;;;;5050264;28;20515;-69
2022/05/08 02:38:59;;;;;;;8.65;3.13;;;11.70;70.20;;;;;;5052890;28;20022;-69
2022/05/08 02:41:24;;;;;;;13.55;3.50;;;11.70;70.20;;;;;;5055016;28;20025;-69
2022/05/08 02:43:50;;;;;;;10.10;2.55;;;11.60;70.30;;;;;;5054036;28;20025;-69
2022/05/08 02:46:15;;;;;;;9.35;2.92;;;11.60;70.30;;;;;;5052906;28;20030;-69
2022/05/08 02:48:41;;;;;;;18.63;4.07;;;11.70;70.20;;;;;;5056055;28;20041;-69
2022/05/08 02:51:07;;;;;;;15.05;4.15;;;11.60;70.20;;;;;;5056962;28;20067;-69
2022/05/08 02:53:33;;;;;;;9.77;3.53;;;11.50;70.50;;;;;;5054999;28;20059;-69
2022/05/08 02:58:42;;;;;;;12.07;3.28;;;11.50;70.30;;;;;;5059816;28;20033;-68
2022/05/08 03:01:08;;;;;;;12.98;3.63;;;11.50;70.30;;;;;;5064633;28;20028;-68
2022/05/08 03:03:34;;;;;;;9.35;2.95;;;11.40;70.50;;;;;;5068304;28;20024;-69
2022/05/08 03:06:00;;;;;;;8.52;2.80;;;11.40;70.60;;;;;;5057848;28;20159;-68
2022/05/08 03:08:25;;;;;;;10.82;3.08;;;11.50;70.40;;;;;;5046357;28;20496;-69
2022/05/08 03:13:40;;;;;;;9.52;3.00;;;11.30;70.40;;;;;;5042605;28;20040;-70
2022/05/08 03:16:07;;;;;;;11.52;3.30;;;11.30;70.70;;;;;;5053441;28;20029;-71
2022/05/08 03:18:34;;;;;;;10.00;3.00;;;11.30;70.50;;;;;;5040252;28;20079;-71
2022/05/08 03:21:00;;;;;;;8.52;2.78;;;11.40;70.40;;;;;;5047875;28;20017;-72
2022/05/08 03:23:27;;;;;;;15.45;4.13;;;11.40;70.30;;;;;;5053741;28;20158;-72
2022/05/08 03:25:52;;;;;;;12.73;3.60;;;11.30;70.20;;;;;;5064371;28;20033;-72
2022/05/08 03:28:18;;;;;;;9.77;2.60;;;11.20;70.50;;;;;;5038380;28;20037;-72
2022/05/08 03:30:45;;;;;;;11.98;3.30;;;11.30;70.50;;;;;;5059615;28;20034;-72
2022/05/08 03:33:10;;;;;;;10.50;2.83;;;11.30;70.50;;;;;;5057436;28;20044;-72
2022/05/08 03:35:40;;;;;;;10.52;3.25;;;11.20;70.50;;;;;;5054600;28;20046;-72
2022/05/08 03:38:06;;;;;;;10.40;2.88;;;11.20;70.50;;;;;;5046685;28;20104;-71
2022/05/08 03:40:33;;;;;;;11.15;3.25;;;11.30;70.40;;;;;;5050768;28;20026;-71
2022/05/08 03:42:59;;;;;;;12.50;2.80;;;11.20;70.20;;;;;;5056706;28;20032;-71
2022/05/08 03:45:25;;;;;;;9.98;3.20;;;11.30;70.10;;;;;;5051431;28;20395;-71
2022/05/08 03:47:52;;;;;;;8.43;2.65;;;11.30;70.00;;;;;;5060444;28;20033;-71
2022/05/08 03:50:18;;;;;;;9.15;2.65;;;11.30;70.00;;;;;;5054598;28;20446;-69
2022/05/08 03:52:44;;;;;;;9.50;2.75;;;11.30;70.00;;;;;;5066531;28;20056;-70
2022/05/08 03:55:11;;;;;;;8.93;2.40;;;11.20;70.00;;;;;;5061597;28;20387;-69
2022/05/08 03:57:37;;;;;;;7.90;2.40;;;11.30;70.00;;;;;;5056258;28;20021;-69
2022/05/08 04:00:03;;;;;;;6.38;2.20;;;11.30;69.80;;;;;;5057056;28;20021;-69
2022/05/08 04:02:29;;;;;;;10.82;2.90;;;11.30;69.70;;;;;;5066448;28;20025;-69
2022/05/08 04:04:55;;;;;;;9.35;3.15;;;11.30;69.70;;;;;;5059008;28;20031;-68
2022/05/08 04:07:20;;;;;;;7.30;2.63;;;11.20;69.60;;;;;;5054818;28;20036;-69
2022/05/08 04:09:46;;;;;;;10.00;2.72;;;11.20;69.70;;;;;;5051977;28;20022;-68
2022/05/08 04:12:11;;;;;;;11.55;2.88;;;11.10;70.00;;;;;;5055457;28;20360;-68
2022/05/08 04:14:37;;;;;;;9.38;2.60;;;11.10;70.00;;;;;;5043029;28;20025;-67
2022/05/08 04:17:03;;;;;;;8.00;2.20;;;11.10;70.00;;;;;;5059035;28;20025;-68
2022/05/08 04:19:28;;;;;;;11.52;3.00;;;11.10;69.90;;;;;;5047982;28;20028;-68
2022/05/08 04:24:16;;;;;;;10.05;2.67;;;11.10;69.80;;;;;;5059455;28;20029;-68
2022/05/08 04:24:42;;;;;;;9.38;3.15;;;11.10;69.80;;;;;;5045286;28;20121;-68
2022/05/08 04:27:08;;;;;;;11.50;2.90;;;11.10;69.90;;;;;;5065947;28;20036;-67
2022/05/08 04:29:34;;;;;;;8.10;2.28;;;11.10;69.90;;;;;;5052783;28;20487;-68
2022/05/08 04:31:59;;;;;;;9.60;2.47;;;11.10;69.80;;;;;;5068016;28;20025;-69
2022/05/08 04:34:25;;;;;;;9.70;2.50;;;11.10;69.80;;;;;;5048895;28;20637;-69
2022/05/08 04:36:50;;;;;;;10.60;2.42;;;11.00;69.80;;;;;;5060535;28;20093;-70
2022/05/08 04:39:17;;;;;;;9.45;2.70;;;11.00;69.90;;;;;;5040037;28;20022;-70
2022/05/08 04:41:43;;;;;;;10.32;2.78;;;11.00;69.90;;;;;;5053582;28;20022;-69
2022/05/08 04:44:08;;;;;;;10.43;3.05;;;11.00;69.90;;;;;;5067511;28;20369;-68
2022/05/08 04:46:34;;;;;;;8.80;2.45;;;11.00;69.90;;;;;;5054648;28;20025;-69
2022/05/08 04:49:00;;;;;;;9.27;2.60;;;11.00;69.90;;;;;;5061113;28;20546;-68
2022/05/08 04:51:25;;;;;;;7.35;2.60;;;11.00;69.90;;;;;;5050510;28;20460;-69
2022/05/08 04:53:51;;;;;;;9.85;2.60;;;11.00;69.90;;;;;;5060577;28;20036;-69
2022/05/08 04:56:16;;;;;;;6.85;2.25;;;11.00;69.80;;;;;;5042333;28;20525;-69
2022/05/08 04:58:42;;;;;;;13.35;3.33;;;10.90;69.80;;;;;;5054744;28;20395;-70
2022/05/08 05:01:07;;;;;;;9.75;3.08;;;10.90;69.90;;;;;;5050212;28;20557;-70
2022/05/08 05:03:33;;;;;;;9.63;2.45;;;10.90;69.90;;;;;;5057310;28;20025;-70
2022/05/08 05:05:58;;;;;;;8.45;2.50;;;10.90;69.90;;;;;;5055405;28;20437;-68
2022/05/08 05:08:24;;;;;;;9.73;2.83;;;11.00;69.80;;;;;;5060926;28;20085;-69
2022/05/08 05:10:49;;;;;;;8.57;3.10;;;11.10;69.60;;;;;;5055646;28;20036;-70
2022/05/08 05:13:15;;;;;;;6.85;2.83;;;11.10;69.50;;;;;;5061419;28;20104;-69
2022/05/08 05:15:41;;;;;;;9.98;2.85;;;11.20;69.60;;;;;;5055675;28;20164;-69
2022/05/08 05:18:07;;;;;;;8.40;2.65;;;11.70;69.30;;;;;;5052809;28;20024;-68
2022/05/08 05:20:32;;;;;;;8.27;2.30;;;12.70;67.40;;;;;;5038081;28;20452;-69
2022/05/08 05:23:02;;;;;;;9.68;2.60;;;13.50;65.00;;;;;;5056411;28;20021;-68
2022/05/08 05:25:29;;;;;;;8.73;3.17;;;14.30;62.90;;;;;;5049692;28;20547;-70
2022/05/08 05:27:55;;;;;;;10.18;3.22;;;14.90;60.50;;;;;;5066934;28;20099;-70
2022/05/08 05:30:21;;;;;;;12.55;4.00;;;15.50;59.20;;;;;;5048736;28;20044;-69
2022/05/08 05:32:47;;;;;;;9.05;2.80;;;15.90;57.40;;;;;;5054499;28;20100;-69
2022/05/08 05:35:13;;;;;;;11.38;3.10;;;16.30;56.80;;;;;;5050136;28;20482;-69
2022/05/08 05:37:39;;;;;;;6.35;2.60;;;16.60;55.50;;;;;;5046082;28;20148;-69
2022/05/08 05:40:08;;;;;;;11.68;3.17;;;17.20;54.70;;;;;;5052666;28;20021;-69
2022/05/08 05:42:34;;;;;;;7.55;2.42;;;17.60;53.70;;;;;;5049912;28;20040;-70
2022/05/08 05:44:59;;;;;;;9.70;3.03;;;18.00;52.70;;;;;;5066712;28;20101;-69
2022/05/08 05:50:10;;;;;;;11.63;3.65;;;18.30;51.00;;;;;;5038374;28;20036;-70
2022/05/08 05:52:36;;;;;;;9.77;3.00;;;18.20;50.20;;;;;;5042010;28;20076;-70
2022/05/08 05:55:06;;;;;;;13.10;3.85;;;18.50;49.50;;;;;;5058172;28;20108;-70
2022/05/08 05:57:35;;;;;;;9.07;3.45;;;18.30;48.60;;;;;;5049229;28;20025;-70
2022/05/08 06:00:06;;;;;;;10.05;2.70;;;18.10;49.40;;;;;;5053355;28;20060;-70
2022/05/08 06:02:31;;;;;;;8.13;2.50;;;18.50;49.40;;;;;;5043396;28;20021;-69
2022/05/08 06:04:57;;;;;;;8.90;2.70;;;18.90;48.10;;;;;;5051582;28;20079;-69
2022/05/08 06:07:22;;;;;;;5.93;2.15;;;19.00;48.00;;;;;;5044237;28;20487;-70
2022/05/08 06:09:48;;;;;;;9.50;2.67;;;19.40;47.30;;;;;;5042861;28;20036;-69
2022/05/08 06:12:13;;;;;;;8.13;2.47;;;20.10;46.50;;;;;;5049189;28;20038;-70
2022/05/08 06:14:40;;;;;;;8.95;2.63;;;20.50;45.60;;;;;;5052517;28;20026;-70
2022/05/08 06:17:05;;;;;;;8.38;2.47;;;20.50;43.90;;;;;;5048064;28;20037;-69
2022/05/08 06:19:31;;;;;;;8.25;2.92;;;20.40;43.90;;;;;;5052515;28;20115;-70
2022/05/08 06:21:57;;;;;;;7.38;2.45;;;20.10;43.80;;;;;;5041370;28;20047;-70
2022/05/08 06:24:23;;;;;;;9.63;2.67;;;20.30;44.50;;;;;;5062490;28;20027;-70
2022/05/08 06:26:48;;;;;;;9.00;2.67;;;20.40;44.00;;;;;;5049270;28;20068;-68
2022/05/08 06:29:14;;;;;;;7.78;2.33;;;19.80;44.00;;;;;;5048109;28;20111;-68
2022/05/08 06:31:39;;;;;;;9.57;2.55;;;19.60;45.10;;;;;;5047777;28;20025;-69
2022/05/08 06:34:06;;;;;;;8.30;2.50;;;19.60;45.00;;;;;;5042642;28;20063;-70
2022/05/08 06:36:32;;;;;;;8.57;2.42;;;19.60;44.80;;;;;;5042946;28;20114;-69
2022/05/08 06:38:58;;;;;;;10.27;2.35;;;19.00;44.90;;;;;;5034683;28;20494;-70
2022/05/08 06:41:28;;;;;;;11.18;3.13;;;18.40;46.30;;;;;;5039929;28;20156;-69
2022/05/08 06:43:54;;;;;;;7.68;2.47;;;18.70;46.80;;;;;;5045985;28;20379;-68
2022/05/08 06:46:19;;;;;;;7.95;2.70;;;18.80;47.10;;;;;;5035069;28;20048;-69
2022/05/08 06:48:47;;;;;;;10.35;3.28;;;18.50;45.90;;;;;;5033477;28;20029;-69
2022/05/08 06:51:13;;;;;;;8.05;2.75;;;17.70;46.80;;;;;;5046369;28;20029;-70
2022/05/08 06:53:39;;;;;;;8.30;2.42;;;17.20;48.40;;;;;;5038439;28;20032;-69
2022/05/08 06:56:05;;;;;;;9.23;2.60;;;17.00;49.30;;;;;;5042808;28;20029;-69
2022/05/08 06:58:30;;;;;;;13.15;2.92;;;16.70;49.70;;;;;;5043048;28;20029;-69
2022/05/08 07:03:40;;;;;;;8.55;2.53;;;17.20;49.70;;;;;;5036941;28;20060;-68
2022/05/08 07:06:06;;;;;;;10.38;2.70;;;17.80;48.20;;;;;;5038567;28;20442;-69
2022/05/08 07:08:33;;;;;;;8.48;2.38;;;17.70;47.60;;;;;;5031137;28;20026;-69
2022/05/08 07:11:00;;;;;;;9.60;2.50;;;17.90;47.30;;;;;;5032116;28;20039;-69
2022/05/08 07:13:26;;;;;;;8.00;2.30;;;17.50;47.20;;;;;;5041403;28;20675;-69
2022/05/08 07:15:53;;;;;;;8.10;2.85;;;17.80;47.80;;;;;;5037365;28;20033;-69
2022/05/08 07:18:19;;;;;;;5.70;2.30;;;17.70;47.50;;;;;;5028404;28;20112;-69
2022/05/08 07:20:45;;;;;;;5.20;1.73;;;17.70;48.10;;;;;;5034911;28;20105;-69
2022/05/08 07:23:11;;;;;;;5.45;1.80;;;18.20;48.00;;;;;;5033468;28;20031;-68
2022/05/08 07:25:38;;;;;;;7.82;2.17;;;18.50;47.40;;;;;;5032328;28;20368;-69
2022/05/08 07:28:04;;;;;;;7.95;2.15;;;18.40;46.50;;;;;;5030050;28;20791;-69
2022/05/08 07:30:29;;;;;;;7.28;2.05;;;17.80;47.30;;;;;;5030919;28;20502;-69
2022/05/08 07:32:56;;;;;;;6.05;2.10;;;17.70;48.30;;;;;;5033726;28;20026;-70
2022/05/08 07:38:06;;;;;;;8.77;2.33;;;17.10;48.70;;;;;;5036768;28;20055;-69
2022/05/08 07:40:32;;;;;;;7.93;2.47;;;16.90;49.40;;;;;;5035863;28;20052;-69
2022/05/08 07:42:58;;;;;;;6.60;1.90;;;16.50;49.10;;;;;;5029863;28;20434;-70
2022/05/08 07:45:23;;;;;;;7.05;1.98;;;16.40;50.10;;;;;;5028706;28;20132;-70
2022/05/08 07:47:49;;;;;;;5.93;1.80;;;16.40;50.50;;;;;;5031339;28;20739;-70
2022/05/08 07:50:14;;;;;;;5.60;2.03;;;16.40;50.50;;;;;;5029640;28;20025;-69
2022/05/08 07:52:40;;;;;;;8.75;2.47;;;16.30;50.40;;;;;;5035303;28;20403;-69
2022/05/08 07:55:07;;;;;;;6.00;2.38;;;16.20;49.60;;;;;;5031467;28;20075;-69
2022/05/08 07:57:33;;;;;;;7.57;2.53;;;15.90;50.60;;;;;;5034153;28;20060;-69
2022/05/08 07:59:59;;;;;;;6.70;1.83;;;16.00;50.60;;;;;;5031262;28;20041;-70
2022/05/08 08:02:25;;;;;;;6.15;1.90;;;16.00;51.10;;;;;;5031505;28;20475;-70
2022/05/08 08:04:51;;;;;;;5.40;1.98;;;16.10;51.20;;;;;;5030741;28;21090;-69
2022/05/08 08:07:17;;;;;;;9.18;2.20;;;16.10;51.10;;;;;;5035180;28;20035;-68
2022/05/08 08:09:42;;;;;;;5.85;1.85;;;16.20;51.10;;;;;;5040499;28;20045;-69
2022/05/08 08:12:08;;;;;;;4.82;1.65;;;16.30;51.10;;;;;;5037993;28;20028;-69
2022/05/08 08:14:33;;;;;;;6.50;2.13;;;16.40;51.10;;;;;;5036164;28;20075;-69
2022/05/08 08:16:59;;;;;;;6.13;2.03;;;16.50;50.90;;;;;;5041316;28;20060;-68
2022/05/08 08:19:24;;;;;;;5.82;2.10;;;16.60;50.60;;;;;;5036640;28;20026;-69
2022/05/08 08:21:50;;;;;;;8.10;2.20;;;16.70;50.20;;;;;;5041005;28;20021;-69
2022/05/08 08:24:16;;;;;;;7.82;2.45;;;16.70;49.80;;;;;;5035900;28;20018;-69
2022/05/08 08:26:42;;;;;;;6.47;2.05;;;16.50;49.50;;;;;;5041138;28;20383;-69
2022/05/08 08:29:07;;;;;;;6.80;2.30;;;16.60;50.20;;;;;;5044617;28;20071;-69
2022/05/08 08:31:33;;;;;;;8.80;2.55;;;16.50;49.60;;;;;;5039840;28;20034;-70
2022/05/08 08:33:59;;;;;;;10.20;2.70;;;16.30;49.70;;;;;;5039541;28;20478;-69
2022/05/08 08:36:24;;;;;;;6.55;2.00;;;16.10;50.30;;;;;;5037681;28;20034;-68
2022/05/08 08:38:50;;;;;;;5.68;1.75;;;16.20;50.50;;;;;;5043159;28;20021;-69
2022/05/08 08:41:21;;;;;;;4.82;1.80;;;16.30;50.00;;;;;;5041578;28;20020;-69
2022/05/08 08:49:22;;;;;;;3.70;1.50;;;16.70;49.00;;;;;;5046410;28;20501;-69
2022/05/08 08:51:49;;;;;;;5.22;2.03;;;16.80;48.80;;;;;;5047076;28;20112;-69
2022/05/08 08:54:23;;;;;;;6.38;2.10;;;16.60;48.40;;;;;;5051792;28;20027;-70
2022/05/08 08:56:49;;;;;;;6.40;2.20;;;16.60;48.50;;;;;;5047230;28;20083;-69
2022/05/08 08:59:15;;;;;;;6.93;2.10;;;16.70;48.40;;;;;;5054594;28;20019;-69
2022/05/08 09:01:44;;;;;;;6.90;2.30;;;16.80;48.10;;;;;;5047743;28;20025;-69
2022/05/08 09:04:11;;;;;;;6.47;2.20;;;16.70;47.10;;;;;;5046335;28;20053;-69
2022/05/08 09:06:41;;;;;;;5.97;2.20;;;16.60;48.10;;;;;;5049139;28;20021;-69
2022/05/08 09:09:26;;;;;;;5.32;2.38;;;16.70;48.00;;;;;;5041672;28;20024;-69
2022/05/08 09:11:53;;;;;;;5.35;2.28;;;16.70;48.10;;;;;;5063046;28;20033;-68
2022/05/08 09:14:39;;;;;;;5.97;2.00;;;16.80;48.00;;;;;;5058619;28;20112;-68
2022/05/08 09:17:06;;;;;;;5.28;1.70;;;16.90;47.70;;;;;;5045798;28;20033;-69
2022/05/08 09:19:37;;;;;;;7.18;2.45;;;17.00;47.80;;;;;;5051751;28;20045;-68
2022/05/08 09:22:05;;;;;;;6.43;2.20;;;17.00;47.00;;;;;;5053313;28;20682;-69
2022/05/08 09:24:31;;;;;;;6.43;2.00;;;16.80;47.30;;;;;;5050750;28;20030;-69
2022/05/08 09:27:12;;;;;;;4.43;1.67;;;16.90;47.40;;;;;;5051454;28;20029;-69
2022/05/08 09:29:39;;;;;;;4.90;1.95;;;17.00;47.10;;;;;;5048258;28;20048;-69
2022/05/08 09:32:05;;;;;;;7.00;2.00;;;17.10;46.90;;;;;;5041111;28;20083;-68
2022/05/08 09:34:30;;;;;;;7.15;2.30;;;17.30;46.50;;;;;;5044128;28;20037;-70
2022/05/08 09:37:09;;;;;;;5.93;1.85;;;17.20;45.50;;;;;;5044792;28;20032;-70
2022/05/08 09:39:34;;;;;;;7.65;2.38;;;17.00;45.90;;;;;;5046932;28;20033;-70
2022/05/08 09:42:00;;;;;;;5.25;1.80;;;17.10;45.90;;;;;;5046731;28;20143;-69
2022/05/08 09:44:25;;;;;;;5.68;2.15;;;17.20;45.90;;;;;;5042290;28;20025;-70
2022/05/08 09:46:51;;;;;;;6.18;2.38;;;17.20;45.70;;;;;;5046781;28;21843;-70
2022/05/08 09:49:24;;;;;;;5.20;1.70;;;17.30;45.60;;;;;;5052761;28;20025;-69
2022/05/08 09:51:51;;;;;;;5.15;2.17;;;17.40;45.80;;;;;;5055109;28;20037;-70
2022/05/08 09:54:18;;;;;;;5.47;2.08;;;17.50;45.20;;;;;;5057284;28;20036;-69
2022/05/08 09:56:49;;;;;;;4.30;1.73;;;17.30;45.40;;;;;;5047043;28;20037;-69
2022/05/08 09:59:19;;;;;;;7.85;2.13;;;17.50;45.70;;;;;;5053744;28;20498;-70
2022/05/08 10:01:44;;;;;;;5.97;2.10;;;17.50;45.30;;;;;;5052708;28;20033;-70
2022/05/08 10:04:10;;;;;;;3.63;1.80;;;17.40;45.10;;;;;;5046896;28;20043;-70
2022/05/08 10:06:38;;;;;;;5.18;1.80;;;17.50;45.20;;;;;;5048003;28;20042;-70
2022/05/08 10:14:34;;;;;;;6.50;2.00;;;17.80;44.60;;;;;;5046722;28;20044;-70
2022/05/08 10:16:59;;;;;;;6.32;1.67;;;17.80;44.40;;;;;;5056088;28;20032;-70
2022/05/08 10:19:25;;;;;;;5.30;1.88;;;17.80;44.60;;;;;;5046035;28;20036;-69
2022/05/08 10:21:56;;;;;;;7.05;2.20;;;17.90;44.80;;;;;;5044903;28;20029;-70
2022/05/08 10:24:35;;;;;;;9.27;2.40;;;18.00;43.90;;;;;;5044568;28;20383;-70
2022/05/08 10:27:31;;;;;;;4.22;2.17;;;17.60;43.00;;;;;;5043176;28;20171;-70
2022/05/08 10:29:56;;;;;;;5.50;2.00;;;17.40;44.00;;;;;;5049142;28;20089;-69
2022/05/08 10:32:31;;;;;;;3.83;1.67;;;17.30;44.60;;;;;;5045390;28;20625;-69
2022/05/08 10:35:16;;;;;;;6.22;2.10;;;17.30;45.20;;;;;;5046662;28;20222;-69
2022/05/08 10:37:51;;;;;;;4.22;2.03;;;17.30;44.50;;;;;;5056319;28;20056;-69
2022/05/08 10:40:23;;;;;;;6.03;2.08;;;17.40;44.50;;;;;;5047363;28;20030;-70
2022/05/08 10:42:57;;;;;;;6.40;2.33;;;17.50;44.10;;;;;;5049374;28;20031;-69
2022/05/08 10:45:32;;;;;;;4.65;1.90;;;17.60;43.30;;;;;;5042313;28;20405;-69
2022/05/08 10:48:20;;;;;;;6.53;2.20;;;17.80;43.70;;;;;;5047203;28;20029;-69
2022/05/08 10:50:52;;;;;;;9.55;3.20;;;18.00;43.90;;;;;;5039160;28;20364;-69
2022/05/08 10:53:20;;;;;;;6.95;2.25;;;17.90;43.10;;;;;;5036897;28;20030;-69
2022/05/08 10:55:45;;;;;;;6.25;2.10;;;17.80;43.40;;;;;;5041107;28;20025;-69
2022/05/08 10:58:11;;;;;;;3.97;2.00;;;17.90;44.10;;;;;;5044927;28;20024;-69
2022/05/08 11:00:36;;;;;;;5.88;2.10;;;18.00;44.20;;;;;;5047023;28;20106;-69
2022/05/08 11:03:03;;;;;;;5.35;1.90;;;18.20;44.00;;;;;;5041455;28;20390;-69
2022/05/08 11:05:31;;;;;;;5.28;1.92;;;18.30;43.70;;;;;;5039696;28;20098;-69
2022/05/08 11:08:01;;;;;;;4.38;2.00;;;18.50;43.30;;;;;;5047484;28;20078;-69
2022/05/08 11:10:32;;;;;;;4.93;1.77;;;18.70;42.50;;;;;;5044112;28;20037;-69
2022/05/08 11:13:02;;;;;;;6.43;2.08;;;18.70;41.90;;;;;;5045405;28;20020;-69
2022/05/08 11:15:33;;;;;;;4.22;1.75;;;18.50;40.40;;;;;;5040820;28;20097;-69
2022/05/08 11:18:15;;;;;;;5.32;1.80;;;18.50;41.20;;;;;;5044752;28;20017;-69
2022/05/08 11:20:48;;;;;;;5.28;2.25;;;18.70;41.60;;;;;;5047299;28;20490;-69
2022/05/08 11:23:15;;;;;;;5.32;2.15;;;18.80;40.60;;;;;;5045395;28;20041;-69
2022/05/08 11:25:44;;;;;;;5.00;2.03;;;18.50;40.70;;;;;;5042902;28;20041;-69
2022/05/08 11:28:14;;;;;;;3.72;2.00;;;18.40;41.30;;;;;;5047342;28;20025;-70
2022/05/08 11:30:40;;;;;;;5.68;2.05;;;18.20;41.70;;;;;;5045384;28;20144;-70
2022/05/08 11:36:07;;;;;;;5.43;2.22;;;18.20;42.00;;;;;;5045908;28;20069;-70
2022/05/08 11:38:50;;;;;;;4.10;2.10;;;18.30;41.80;;;;;;5049222;28;20021;-70
2022/05/08 11:41:21;;;;;;;3.47;1.65;;;18.20;41.80;;;;;;5042861;28;20049;-70
2022/05/08 11:43:49;;;;;;;3.95;1.60;;;18.40;42.00;;;;;;5045286;28;20040;-69
2022/05/08 11:46:32;;;;;;;4.75;1.77;;;18.80;41.60;;;;;;5042135;28;20565;-70
2022/05/08 11:48:57;;;;;;;5.88;1.92;;;19.00;41.00;;;;;;5048293;28;20133;-69
2022/05/08 11:51:23;;;;;;;5.18;1.70;;;18.90;40.70;;;;;;5044533;28;20029;-69
2022/05/08 11:53:50;;;;;;;4.03;1.88;;;18.90;41.30;;;;;;5044548;28;20028;-69
2022/05/08 11:56:21;;;;;;;3.55;1.70;;;19.00;41.20;;;;;;5040098;28;20032;-70
2022/05/08 11:58:47;;;;;;;5.85;2.22;;;19.20;41.30;;;;;;5048835;28;20378;-70
2022/05/08 12:01:27;;;;;;;4.18;1.58;;;19.30;40.40;;;;;;5057324;28;20483;-70
2022/05/08 12:03:53;;;;;;;5.03;1.80;;;19.20;40.40;;;;;;5048461;28;20055;-70
2022/05/08 12:06:19;;;;;;;6.75;1.90;;;19.10;40.20;;;;;;5049342;28;20036;-69
2022/05/08 12:08:45;;;;;;;8.32;4.22;;;19.20;40.20;;;;;;5042719;28;20121;-70
2022/05/08 12:11:30;;;;;;;4.70;1.95;;;19.10;39.10;;;;;;5052700;28;20551;-70
2022/05/08 12:14:07;;;;;;;4.40;1.80;;;19.10;38.80;;;;;;5045166;28;20036;-69
2022/05/08 12:16:34;;;;;;;5.22;2.20;;;19.00;38.00;;;;;;5039454;28;20025;-70
2022/05/08 12:19:18;;;;;;;4.22;1.60;;;18.90;38.30;;;;;;5036112;28;20026;-69
2022/05/08 12:21:45;;;;;;;2.35;1.30;;;19.30;38.40;;;;;;5039950;28;20025;-69
2022/05/08 12:24:12;;;;;;;3.13;1.35;;;19.70;37.80;;;;;;5043496;28;20426;-70
2022/05/08 12:26:37;;;;;;;5.43;1.70;;;20.10;37.20;;;;;;5042551;28;20033;-70
2022/05/08 12:29:16;;;;;;;3.88;1.60;;;20.20;37.60;;;;;;5042772;28;20083;-70
2022/05/08 12:31:42;;;;;;;2.03;1.30;;;20.60;37.80;;;;;;5049397;28;20064;-70
2022/05/08 12:34:11;;;;;;;6.25;1.60;;;21.00;37.80;;;;;;5057857;28;20643;-70
2022/05/08 12:36:39;;;;;;;3.90;1.55;;;21.20;36.90;;;;;;5061562;28;20500;-70
2022/05/08 12:39:04;;;;;;;3.72;1.67;;;21.30;36.50;;;;;;5053215;28;20627;-70
2022/05/08 12:41:31;;;;;;;6.25;1.70;;;21.40;36.00;;;;;;5049592;28;20096;-70
2022/05/08 12:43:57;;;;;;;4.78;1.85;;;21.20;36.30;;;;;;5037970;28;20036;-70
2022/05/08 12:46:22;;;;;;;3.80;1.33;;;21.00;34.80;;;;;;5036531;28;20060;-71
2022/05/08 12:48:48;;;;;;;5.88;1.60;;;21.00;36.00;;;;;;5037638;28;20025;-71
2022/05/08 12:51:13;;;;;;;2.50;1.30;;;21.20;35.90;;;;;;5033116;28;20061;-70
2022/05/08 12:53:39;;;;;;;2.50;1.17;;;21.50;35.80;;;;;;5044546;28;20033;-70
2022/05/08 12:56:05;;;;;;;5.15;1.70;;;21.70;35.70;;;;;;5050566;28;20032;-70
2022/05/08 13:01:14;;;;;;;4.95;1.52;;;21.80;34.20;;;;;;5047474;28;20510;-69
2022/05/08 13:03:41;;;;;;;4.10;1.55;;;21.90;34.10;;;;;;5052516;28;20029;-69
2022/05/08 13:06:07;;;;;;;4.85;1.55;;;22.00;33.50;;;;;;5049837;28;20025;-70
2022/05/08 13:08:32;;;;;;;5.45;2.03;;;21.60;34.20;;;;;;5048151;28;20025;-69
2022/05/08 13:11:02;;;;;;;3.97;1.60;;;21.50;34.00;;;;;;5056109;28;20033;-69
2022/05/08 13:13:31;;;;;;;4.25;1.70;;;21.20;34.40;;;;;;5058723;28;20037;-70
2022/05/08 13:15:57;;;;;;;2.42;1.23;;;20.90;34.80;;;;;;5051739;28;20414;-70
2022/05/08 13:18:23;;;;;;;2.83;1.52;;;21.10;35.50;;;;;;5048158;28;20024;-70